createdAt,value
2018-09-23T00:01:31.682Z,12.26
2018-09-23T00:04:00.393Z,12.26
2018-09-23T00:06:29.096Z,12.26
2018-09-23T00:08:57.747Z,12.25
2018-09-23T00:11:26.486Z,12.25
2018-09-23T00:13:55.168Z,12.24
2018-09-23T00:16:23.845Z,12.24
2018-09-23T00:18:52.560Z,12.24
2018-09-23T00:21:21.237Z,12.24
2018-09-23T00:23:49.913Z,12.25
2018-09-23T00:26:18.611Z,12.25
2018-09-23T00:28:47.307Z,12.26
2018-09-23T00:31:16.013Z,12.25
2018-09-23T00:33:44.728Z,12.25
2018-09-23T00:36:13.435Z,12.26
2018-09-23T00:38:42.115Z,12.25
2018-09-23T00:41:10.811Z,12.25
2018-09-23T00:43:39.522Z,12.25
2018-09-23T00:46:08.340Z,12.25
2018-09-23T00:48:37.056Z,12.25
2018-09-23T00:51:05.936Z,12.24
2018-09-23T00:53:34.626Z,12.25
2018-09-23T00:56:03.317Z,12.24
2018-09-23T00:58:32.014Z,12.24
2018-09-23T01:01:00.696Z,12.25
2018-09-23T01:03:29.363Z,12.25
2018-09-23T01:05:58.048Z,12.26
2018-09-23T01:08:26.704Z,12.24
2018-09-23T01:10:55.380Z,12.24
2018-09-23T01:13:24.152Z,12.24
2018-09-23T01:15:52.832Z,12.23
2018-09-23T01:18:21.521Z,12.22
2018-09-23T01:20:50.210Z,12.22
2018-09-23T01:23:18.860Z,12.21
2018-09-23T01:25:47.505Z,12.20
2018-09-23T01:28:17.068Z,12.20
2018-09-23T01:30:45.748Z,12.20
2018-09-23T01:33:14.391Z,12.21
2018-09-23T01:35:43.069Z,12.18
2018-09-23T01:38:11.752Z,12.18
2018-09-23T01:40:40.424Z,12.18
2018-09-23T01:43:09.129Z,12.17
2018-09-23T01:45:37.887Z,12.17
2018-09-23T01:48:06.745Z,12.17
2018-09-23T01:50:35.536Z,12.16
2018-09-23T01:53:04.229Z,12.16
2018-09-23T01:55:32.963Z,12.16
2018-09-23T01:58:01.661Z,12.17
2018-09-23T02:00:30.412Z,12.17
2018-09-23T02:02:59.107Z,12.17
2018-09-23T02:05:27.804Z,12.16
2018-09-23T02:07:56.503Z,12.16
2018-09-23T02:10:25.209Z,12.15
2018-09-23T02:12:53.876Z,12.16
2018-09-23T02:15:22.560Z,12.15
2018-09-23T02:17:51.240Z,12.14
2018-09-23T02:20:19.942Z,12.15
2018-09-23T02:22:49.543Z,12.15
2018-09-23T02:25:18.543Z,12.15
2018-09-23T02:27:47.277Z,12.15
2018-09-23T02:30:15.973Z,12.14
2018-09-23T02:32:44.657Z,12.15
2018-09-23T02:35:13.334Z,12.15
2018-09-23T02:37:42.006Z,12.13
2018-09-23T02:40:10.650Z,12.14
2018-09-23T02:42:39.308Z,12.14
2018-09-23T02:45:07.996Z,12.13
2018-09-23T02:47:37.044Z,12.12
2018-09-23T02:50:05.783Z,12.13
2018-09-23T02:52:34.536Z,12.13
2018-09-23T02:55:03.243Z,12.12
2018-09-23T02:57:31.904Z,12.11
2018-09-23T03:00:00.591Z,12.09
2018-09-23T03:02:29.285Z,12.08
2018-09-23T03:04:57.972Z,12.07
2018-09-23T03:07:26.653Z,12.06
2018-09-23T03:09:55.335Z,12.05
2018-09-23T03:12:24.007Z,12.03
2018-09-23T03:14:52.680Z,12.01
2018-09-23T03:17:21.346Z,12.00
2018-09-23T03:19:50.000Z,12.00
2018-09-23T03:22:18.665Z,11.98
2018-09-23T03:24:47.340Z,11.94
2018-09-23T03:27:16.005Z,11.93
2018-09-23T03:29:44.748Z,11.91
2018-09-23T03:32:13.417Z,11.90
2018-09-23T03:34:42.076Z,11.90
2018-09-23T03:37:10.733Z,11.88
2018-09-23T03:39:39.381Z,11.87
2018-09-23T03:42:08.040Z,11.87
2018-09-23T03:44:36.809Z,11.87
2018-09-23T03:47:05.510Z,11.86
2018-09-23T03:49:34.265Z,11.86
2018-09-23T03:52:02.982Z,11.86
2018-09-23T03:54:31.679Z,11.84
2018-09-23T03:57:00.342Z,11.85
2018-09-23T03:59:29.012Z,11.86
2018-09-23T04:01:57.676Z,11.85
2018-09-23T04:04:26.568Z,11.85
2018-09-23T04:06:55.488Z,11.84
2018-09-23T04:09:24.136Z,11.84
2018-09-23T04:11:52.833Z,11.83
2018-09-23T04:14:21.501Z,11.83
2018-09-23T04:16:50.271Z,11.82
2018-09-23T04:19:18.951Z,11.81
2018-09-23T04:21:47.632Z,11.79
2018-09-23T04:24:16.291Z,11.77
2018-09-23T04:26:44.960Z,11.75
2018-09-23T04:29:13.649Z,11.73
2018-09-23T04:31:42.360Z,11.70
2018-09-23T04:34:11.041Z,11.69
2018-09-23T04:36:39.750Z,11.69
2018-09-23T04:39:09.904Z,11.68
2018-09-23T04:41:38.620Z,11.69
2018-09-23T04:44:07.307Z,11.68
2018-09-23T04:46:36.149Z,11.67
2018-09-23T04:49:04.879Z,11.65
2018-09-23T04:51:33.535Z,11.63
2018-09-23T04:54:02.245Z,11.62
2018-09-23T04:56:30.938Z,11.60
2018-09-23T04:58:59.621Z,11.60
2018-09-23T05:01:28.292Z,11.58
2018-09-23T05:03:56.964Z,11.59
2018-09-23T05:06:25.635Z,11.58
2018-09-23T05:08:54.300Z,11.56
2018-09-23T05:11:23.019Z,11.56
2018-09-23T05:13:51.768Z,11.55
2018-09-23T05:16:20.974Z,11.53
2018-09-23T05:18:49.673Z,11.52
2018-09-23T05:21:18.360Z,11.51
2018-09-23T05:23:47.046Z,11.51
2018-09-23T05:26:15.755Z,11.50
2018-09-23T05:28:44.473Z,11.48
2018-09-23T05:31:13.151Z,11.47
2018-09-23T05:33:41.900Z,11.46
2018-09-23T05:36:10.575Z,11.44
2018-09-23T05:38:39.252Z,11.44
2018-09-23T05:41:07.903Z,11.43
2018-09-23T05:43:36.706Z,11.44
2018-09-23T05:46:05.424Z,11.44
2018-09-23T05:48:34.099Z,11.42
2018-09-23T05:51:02.776Z,11.42
2018-09-23T05:53:31.465Z,11.41
2018-09-23T05:56:00.132Z,11.41
2018-09-23T05:58:28.795Z,11.40
2018-09-23T06:00:57.532Z,11.39
2018-09-23T06:03:26.199Z,11.37
2018-09-23T06:05:54.864Z,11.38
2018-09-23T06:08:23.536Z,11.35
2018-09-23T06:10:52.235Z,11.34
2018-09-23T06:13:20.888Z,11.33
2018-09-23T06:15:49.601Z,11.33
2018-09-23T06:18:18.311Z,11.30
2018-09-23T06:20:47.051Z,11.30
2018-09-23T06:23:15.707Z,11.29
2018-09-23T06:25:44.394Z,11.29
2018-09-23T06:28:13.064Z,11.30
2018-09-23T06:30:41.740Z,11.32
2018-09-23T06:33:10.418Z,11.30
2018-09-23T06:35:39.039Z,11.30
2018-09-23T06:38:07.705Z,11.30
2018-09-23T06:40:36.463Z,11.31
2018-09-23T06:43:05.137Z,11.34
2018-09-23T06:45:33.816Z,11.34
2018-09-23T06:48:02.456Z,11.35
2018-09-23T06:50:31.110Z,11.34
2018-09-23T06:52:59.748Z,11.31
2018-09-23T06:55:30.062Z,11.31
2018-09-23T06:57:59.675Z,11.29
2018-09-23T07:00:28.413Z,11.27
2018-09-23T07:02:57.099Z,11.27
2018-09-23T07:05:25.805Z,11.27
2018-09-23T07:07:54.489Z,11.28
2018-09-23T07:10:23.244Z,11.28
2018-09-23T07:12:51.900Z,11.29
2018-09-23T07:15:20.547Z,11.28
2018-09-23T07:17:49.192Z,11.29
2018-09-23T07:20:17.927Z,11.28
2018-09-23T07:22:46.588Z,11.27
2018-09-23T07:25:15.259Z,11.28
2018-09-23T07:27:43.992Z,11.28
2018-09-23T07:30:12.648Z,11.29
2018-09-23T07:32:41.296Z,11.26
2018-09-23T07:35:10.056Z,11.24
2018-09-23T07:37:38.768Z,11.23
2018-09-23T07:40:07.508Z,11.22
2018-09-23T07:42:36.223Z,11.20
2018-09-23T07:45:05.016Z,11.18
2018-09-23T07:47:33.769Z,11.17
2018-09-23T07:50:02.470Z,11.20
2018-09-23T07:52:31.108Z,11.22
2018-09-23T07:54:59.768Z,11.20
2018-09-23T07:57:28.502Z,11.20
2018-09-23T07:59:57.292Z,11.24
2018-09-23T08:02:25.973Z,11.26
2018-09-23T08:04:54.633Z,11.32
2018-09-23T08:07:23.417Z,11.37
2018-09-23T08:09:52.227Z,11.40
2018-09-23T08:12:21.022Z,11.42
2018-09-23T08:14:50.155Z,11.45
2018-09-23T08:17:18.747Z,11.49
2018-09-23T08:19:47.786Z,11.51
2018-09-23T08:22:16.403Z,11.52
2018-09-23T08:24:45.252Z,11.55
2018-09-23T08:27:14.024Z,11.56
2018-09-23T08:29:42.755Z,11.57
2018-09-23T08:32:11.571Z,11.60
2018-09-23T08:34:40.275Z,11.58
2018-09-23T08:37:08.964Z,11.58
2018-09-23T08:39:37.625Z,11.60
2018-09-23T08:42:06.333Z,11.64
2018-09-23T08:44:35.148Z,11.64
2018-09-23T08:47:03.800Z,11.63
2018-09-23T08:49:32.525Z,11.65
2018-09-23T08:52:01.357Z,11.65
2018-09-23T08:54:30.109Z,11.67
2018-09-23T08:56:58.779Z,11.71
2018-09-23T08:59:27.467Z,11.75
2018-09-23T09:01:56.200Z,11.80
2018-09-23T09:04:24.914Z,11.85
2018-09-23T09:06:53.605Z,11.87
2018-09-23T09:09:22.488Z,11.86
2018-09-23T09:11:51.269Z,11.79
2018-09-23T09:14:19.862Z,11.74
2018-09-23T09:16:48.577Z,11.68
2018-09-23T09:19:17.307Z,11.64
2018-09-23T09:21:45.976Z,11.65
2018-09-23T09:24:14.622Z,11.66
2018-09-23T09:26:43.388Z,11.69
2018-09-23T09:29:12.030Z,11.75
2018-09-23T09:31:40.983Z,11.83
2018-09-23T09:34:09.665Z,11.94
2018-09-23T09:36:38.384Z,12.05
2018-09-23T09:39:08.667Z,12.12
2018-09-23T09:41:37.345Z,12.19
2018-09-23T09:44:06.288Z,12.20
2018-09-23T09:46:34.951Z,12.24
2018-09-23T09:49:03.671Z,12.28
2018-09-23T09:51:32.718Z,12.36
2018-09-23T09:54:01.408Z,12.41
2018-09-23T09:56:33.042Z,12.45
2018-09-23T09:59:01.722Z,12.51
2018-09-23T10:01:30.421Z,12.60
2018-09-23T10:03:59.216Z,12.70
2018-09-23T10:06:27.897Z,12.72
2018-09-23T10:08:56.616Z,12.73
2018-09-23T10:11:25.369Z,12.73
2018-09-23T10:13:54.069Z,12.71
2018-09-23T10:16:22.761Z,12.70
2018-09-23T10:18:51.461Z,12.69
2018-09-23T10:21:20.169Z,12.68
2018-09-23T10:23:48.977Z,12.68
2018-09-23T10:26:17.647Z,12.71
2018-09-23T10:28:46.297Z,12.74
2018-09-23T10:31:14.981Z,12.77
2018-09-23T10:33:43.648Z,12.83
2018-09-23T10:36:12.396Z,12.89
2018-09-23T10:38:41.037Z,12.89
2018-09-23T10:41:09.784Z,12.95
2018-09-23T10:43:38.497Z,12.98
2018-09-23T10:46:07.216Z,13.03
2018-09-23T10:48:35.912Z,13.04
2018-09-23T10:51:04.824Z,13.11
2018-09-23T10:53:33.508Z,13.17
2018-09-23T10:56:02.227Z,13.24
2018-09-23T10:58:30.916Z,13.28
2018-09-23T11:00:59.604Z,13.31
2018-09-23T11:03:28.370Z,13.36
2018-09-23T11:05:57.125Z,13.52
2018-09-23T11:08:25.810Z,13.57
2018-09-23T11:10:54.456Z,13.63
2018-09-23T11:13:23.132Z,13.64
2018-09-23T11:15:51.805Z,13.62
2018-09-23T11:18:20.493Z,13.58
2018-09-23T11:20:49.194Z,13.65
2018-09-23T11:23:17.939Z,13.77
2018-09-23T11:25:46.645Z,13.99
2018-09-23T11:28:15.311Z,14.13
2018-09-23T11:30:44.035Z,14.13
2018-09-23T11:33:12.783Z,14.13
2018-09-23T11:35:41.567Z,14.14
2018-09-23T11:38:10.379Z,14.24
2018-09-23T11:40:39.080Z,14.37
2018-09-23T11:43:07.884Z,14.42
2018-09-23T11:45:36.697Z,14.51
2018-09-23T11:48:05.569Z,14.66
2018-09-23T11:50:34.478Z,14.68
2018-09-23T11:53:03.413Z,14.72
2018-09-23T11:55:32.177Z,14.68
2018-09-23T11:58:00.912Z,14.72
2018-09-23T12:00:29.738Z,14.82
2018-09-23T12:02:58.412Z,14.83
2018-09-23T12:05:27.249Z,14.80
2018-09-23T12:07:55.948Z,14.95
2018-09-23T12:10:24.816Z,15.05
2018-09-23T12:12:53.595Z,15.18
2018-09-23T12:15:22.351Z,15.30
2018-09-23T12:17:51.202Z,15.30
2018-09-23T12:20:20.026Z,15.31
2018-09-23T12:22:48.812Z,15.37
2018-09-23T12:25:17.668Z,15.51
2018-09-23T12:27:46.485Z,15.61
2018-09-23T12:30:15.286Z,15.66
2018-09-23T12:32:44.059Z,15.88
2018-09-23T12:35:12.780Z,16.24
2018-09-23T12:37:41.600Z,16.16
2018-09-23T12:40:10.312Z,15.78
2018-09-23T12:42:39.433Z,15.64
2018-09-23T12:45:08.282Z,15.85
2018-09-23T12:47:37.315Z,15.89
2018-09-23T12:50:06.303Z,15.59
2018-09-23T12:52:35.073Z,15.62
2018-09-23T12:55:04.080Z,15.89
2018-09-23T12:57:32.940Z,16.14
2018-09-23T13:00:01.711Z,16.25
2018-09-23T13:02:30.616Z,16.18
2018-09-23T13:04:59.305Z,16.25
2018-09-23T13:07:28.246Z,16.40
2018-09-23T13:09:57.009Z,16.28
2018-09-23T13:12:25.923Z,15.96
2018-09-23T13:14:54.862Z,15.64
2018-09-23T13:17:24.307Z,15.71
2018-09-23T13:19:53.129Z,15.95
2018-09-23T13:22:21.979Z,16.00
2018-09-23T13:24:50.917Z,16.18
2018-09-23T13:27:19.715Z,16.31
2018-09-23T13:29:48.616Z,16.55
2018-09-23T13:32:17.404Z,16.69
2018-09-23T13:34:46.176Z,16.64
2018-09-23T13:37:15.096Z,16.33
2018-09-23T13:39:43.882Z,15.99
2018-09-23T13:42:12.605Z,15.73
2018-09-23T13:44:41.491Z,15.68
2018-09-23T13:47:10.268Z,15.67
2018-09-23T13:49:39.249Z,15.94
2018-09-23T13:52:08.015Z,16.06
2018-09-23T13:54:36.808Z,15.85
2018-09-23T13:57:05.602Z,15.76
2018-09-23T13:59:34.367Z,15.60
2018-09-23T14:02:03.256Z,15.52
2018-09-23T14:04:32.008Z,15.64
2018-09-23T14:07:00.840Z,15.94
2018-09-23T14:09:29.850Z,15.95
2018-09-23T14:11:58.798Z,15.72
2018-09-23T14:14:27.616Z,15.77
2018-09-23T14:16:56.571Z,15.80
2018-09-23T14:19:25.384Z,16.03
2018-09-23T14:21:56.139Z,16.19
2018-09-23T14:24:24.870Z,16.40
2018-09-23T14:26:53.632Z,16.44
2018-09-23T14:29:22.375Z,16.25
2018-09-23T14:31:51.275Z,16.13
2018-09-23T14:34:20.016Z,15.99
2018-09-23T14:36:48.903Z,15.89
2018-09-23T14:39:17.683Z,16.11
2018-09-23T14:41:46.495Z,16.21
2018-09-23T14:44:15.632Z,16.05
2018-09-23T14:46:44.416Z,16.20
2018-09-23T14:49:13.265Z,16.32
2018-09-23T14:51:42.011Z,16.12
2018-09-23T14:54:10.925Z,16.04
2018-09-23T14:56:39.850Z,15.96
2018-09-23T14:59:08.703Z,15.71
2018-09-23T15:01:37.704Z,15.48
2018-09-23T15:04:06.530Z,15.44
2018-09-23T15:06:35.304Z,15.31
2018-09-23T15:09:05.423Z,15.26
2018-09-23T15:11:34.100Z,15.22
2018-09-23T15:14:02.922Z,15.44
2018-09-23T15:16:31.739Z,15.63
2018-09-23T15:19:00.421Z,15.71
2018-09-23T15:21:29.148Z,15.57
2018-09-23T15:23:57.821Z,15.55
2018-09-23T15:26:26.538Z,15.59
2018-09-23T15:28:55.295Z,15.72
2018-09-23T15:31:24.107Z,15.94
2018-09-23T15:33:52.979Z,16.17
2018-09-23T15:36:21.842Z,16.34
2018-09-23T15:38:50.808Z,16.41
2018-09-23T15:41:19.660Z,16.52
2018-09-23T15:43:48.556Z,16.51
2018-09-23T15:46:17.385Z,16.20
2018-09-23T15:48:46.213Z,15.83
2018-09-23T15:51:15.000Z,15.63
2018-09-23T15:53:43.778Z,15.56
2018-09-23T15:56:12.532Z,15.34
2018-09-23T15:58:41.300Z,15.10
2018-09-23T16:01:09.981Z,14.88
2018-09-23T16:03:38.757Z,14.73
2018-09-23T16:06:07.707Z,14.76
2018-09-23T16:08:36.710Z,14.97
2018-09-23T16:11:05.436Z,15.24
2018-09-23T16:13:34.306Z,15.04
2018-09-23T16:16:03.021Z,15.05
2018-09-23T16:18:31.874Z,14.96
2018-09-23T16:21:00.698Z,15.04
2018-09-23T16:23:29.541Z,15.18
2018-09-23T16:25:58.373Z,15.42
2018-09-23T16:28:27.115Z,15.36
2018-09-23T16:30:55.886Z,15.11
2018-09-23T16:33:24.636Z,14.85
2018-09-23T16:35:53.591Z,14.77
2018-09-23T16:38:22.431Z,14.90
2018-09-23T16:40:51.631Z,14.96
2018-09-23T16:43:20.437Z,14.90
2018-09-23T16:45:49.299Z,15.15
2018-09-23T16:48:18.320Z,15.14
2018-09-23T16:50:47.067Z,14.98
2018-09-23T16:53:16.024Z,14.75
2018-09-23T16:55:44.983Z,14.55
2018-09-23T16:58:13.780Z,14.42
2018-09-23T17:00:42.647Z,14.38
2018-09-23T17:03:11.285Z,14.43
2018-09-23T17:05:40.005Z,14.40
2018-09-23T17:08:08.836Z,14.32
2018-09-23T17:10:37.740Z,14.19
2018-09-23T17:13:06.443Z,14.20
2018-09-23T17:15:35.216Z,14.33
2018-09-23T17:18:03.939Z,14.30
2018-09-23T17:20:32.612Z,14.25
2018-09-23T17:23:01.334Z,14.20
2018-09-23T17:25:30.021Z,14.10
2018-09-23T17:27:58.692Z,14.01
2018-09-23T17:30:27.389Z,13.92
2018-09-23T17:32:56.077Z,13.81
2018-09-23T17:35:24.816Z,13.77
2018-09-23T17:37:53.521Z,13.70
2018-09-23T17:40:22.215Z,13.64
2018-09-23T17:42:50.917Z,13.63
2018-09-23T17:45:19.631Z,13.58
2018-09-23T17:47:48.491Z,13.51
2018-09-23T17:50:17.221Z,13.50
2018-09-23T17:52:45.996Z,13.45
2018-09-23T17:55:14.808Z,13.46
2018-09-23T17:57:43.679Z,13.43
2018-09-23T18:00:12.641Z,13.37
2018-09-23T18:02:41.435Z,13.31
2018-09-23T18:05:10.166Z,13.24
2018-09-23T18:07:38.974Z,13.17
2018-09-23T18:10:07.837Z,13.10
2018-09-23T18:12:36.656Z,13.06
2018-09-23T18:15:05.530Z,13.01
2018-09-23T18:17:34.668Z,12.96
2018-09-23T18:20:03.425Z,12.89
2018-09-23T18:22:32.247Z,12.85
2018-09-23T18:25:00.964Z,12.82
2018-09-23T18:27:29.692Z,12.80
2018-09-23T18:29:58.521Z,12.78
2018-09-23T18:32:27.338Z,12.74
2018-09-23T18:34:56.090Z,12.71
2018-09-23T18:37:24.975Z,12.67
2018-09-23T18:39:53.737Z,12.64
2018-09-23T18:42:22.544Z,12.61
2018-09-23T18:44:51.345Z,12.55
2018-09-23T18:47:20.083Z,12.56
2018-09-23T18:49:48.787Z,12.52
2018-09-23T18:52:17.488Z,12.50
2018-09-23T18:54:51.340Z,12.48
2018-09-23T18:57:20.096Z,12.45
2018-09-23T18:59:48.738Z,12.44
2018-09-23T19:02:17.452Z,12.42
2018-09-23T19:04:46.121Z,12.40
2018-09-23T19:07:14.792Z,12.39
2018-09-23T19:09:43.497Z,12.38
2018-09-23T19:12:12.219Z,12.39
2018-09-23T19:14:40.940Z,12.38
2018-09-23T19:17:09.683Z,12.37
2018-09-23T19:19:43.468Z,12.34
2018-09-23T19:22:17.271Z,12.33
2018-09-23T19:24:45.965Z,12.30
2018-09-23T19:27:14.660Z,12.28
2018-09-23T19:29:43.504Z,12.26
2018-09-23T19:32:12.260Z,12.23
2018-09-23T19:34:40.968Z,12.21
2018-09-23T19:37:09.693Z,12.19
2018-09-23T19:39:38.435Z,12.17
2018-09-23T19:42:07.375Z,12.16
2018-09-23T19:44:36.169Z,12.16
2018-09-23T19:47:04.853Z,12.16
2018-09-23T19:49:33.517Z,12.15
2018-09-23T19:52:02.220Z,12.14
2018-09-23T19:54:30.934Z,12.15
2018-09-23T19:56:59.650Z,12.15
2018-09-23T19:59:28.307Z,12.15
2018-09-23T20:01:56.999Z,12.12
2018-09-23T20:04:25.665Z,12.12
2018-09-23T20:06:54.422Z,12.09
2018-09-23T20:09:23.169Z,12.07
2018-09-23T20:11:51.870Z,12.03
2018-09-23T20:14:20.583Z,12.03
2018-09-23T20:16:49.304Z,11.99
2018-09-23T20:19:18.004Z,11.96
2018-09-23T20:21:46.671Z,11.92
2018-09-23T20:24:15.393Z,11.89
2018-09-23T20:26:44.117Z,11.88
2018-09-23T20:29:12.868Z,11.85
2018-09-23T20:31:41.616Z,11.82
2018-09-23T20:34:10.308Z,11.77
2018-09-23T20:36:39.053Z,11.75
2018-09-23T20:39:09.043Z,11.71
2018-09-23T20:41:38.721Z,11.68
2018-09-23T20:44:07.493Z,11.65
2018-09-23T20:46:36.324Z,11.61
2018-09-23T20:49:05.054Z,11.56
2018-09-23T20:51:33.792Z,11.54
2018-09-23T20:54:02.497Z,11.52
2018-09-23T20:56:31.232Z,11.51
2018-09-23T20:58:59.925Z,11.50
2018-09-23T21:01:28.647Z,11.50
2018-09-23T21:03:57.384Z,11.45
2018-09-23T21:06:26.117Z,11.43
2018-09-23T21:08:54.793Z,11.41
2018-09-23T21:11:23.519Z,11.40
2018-09-23T21:13:52.207Z,11.37
2018-09-23T21:16:20.905Z,11.34
2018-09-23T21:18:49.630Z,11.31
2018-09-23T21:21:18.311Z,11.29
2018-09-23T21:23:47.025Z,11.25
2018-09-23T21:26:15.721Z,11.20
2018-09-23T21:28:44.423Z,11.17
2018-09-23T21:31:13.095Z,11.16
2018-09-23T21:36:18.149Z,11.13
2018-09-23T21:38:46.902Z,11.12
2018-09-23T21:41:15.625Z,11.11
2018-09-23T21:43:44.295Z,11.08
2018-09-23T21:46:12.984Z,11.05
2018-09-23T21:48:41.639Z,11.01
2018-09-23T21:51:10.329Z,11.01
2018-09-23T21:53:39.019Z,11.01
2018-09-23T21:56:07.664Z,10.98
2018-09-23T21:58:36.411Z,10.96
2018-09-23T22:01:05.079Z,10.93
2018-09-23T22:03:33.827Z,10.91
2018-09-23T22:06:02.450Z,10.89
2018-09-23T22:08:31.113Z,10.90
2018-09-23T22:10:59.807Z,10.89
2018-09-23T22:13:28.489Z,10.87
2018-09-23T22:15:57.177Z,10.87
2018-09-23T22:18:25.886Z,10.86
2018-09-23T22:20:54.568Z,10.84
2018-09-23T22:23:23.240Z,10.83
2018-09-23T22:25:51.966Z,10.81
2018-09-23T22:28:20.635Z,10.81
2018-09-23T22:30:49.298Z,10.81
2018-09-23T22:33:17.971Z,10.79
2018-09-23T22:35:46.611Z,10.78
2018-09-23T22:38:15.327Z,10.77
2018-09-23T22:40:44.003Z,10.74
2018-09-23T22:43:12.733Z,10.71
2018-09-23T22:45:41.488Z,10.67
2018-09-23T22:48:10.175Z,10.66
2018-09-23T22:50:38.860Z,10.62
2018-09-23T22:53:07.607Z,10.59
2018-09-23T22:55:36.356Z,10.56
2018-09-23T22:58:05.044Z,10.52
2018-09-23T23:00:33.727Z,10.49
2018-09-23T23:03:02.392Z,10.45
2018-09-23T23:05:31.100Z,10.42
2018-09-23T23:07:59.804Z,10.40
2018-09-23T23:10:28.577Z,10.36
2018-09-23T23:12:57.260Z,10.35
2018-09-23T23:15:25.931Z,10.32
2018-09-23T23:17:54.597Z,10.28
2018-09-23T23:20:23.271Z,10.23
2018-09-23T23:22:51.944Z,10.20
2018-09-23T23:25:20.608Z,10.16
2018-09-23T23:27:49.288Z,10.15
2018-09-23T23:30:17.965Z,10.10
2018-09-23T23:32:46.646Z,10.07
2018-09-23T23:35:15.367Z,10.04
2018-09-23T23:37:44.038Z,9.98
2018-09-23T23:40:12.724Z,9.96
2018-09-23T23:42:41.388Z,9.95
2018-09-23T23:45:10.080Z,9.93
2018-09-23T23:47:38.804Z,9.92
2018-09-23T23:50:07.544Z,9.93
2018-09-23T23:52:36.376Z,9.93
2018-09-23T23:55:05.116Z,9.90
2018-09-23T23:57:33.772Z,9.89
